Time;durP1;ratioP1;P1;durP2;ratioP2;P2;SDS_P1;SDS_P2;PMS_P1;PMS_P2;Temp;Humidity;BMP_temperature;BMP_pressure;BME280_temperature;BME280_humidity;BME280_pressure;Samples;Min_cycle;Max_cycle;Signal;HPM_P1;HPM_P2
2022/11/08 00:03:42;;;;;;;9.63;3.05;;;12.20;99.90;;;;;;4966229;28;20041;-64
2022/11/08 00:14:20;;;;;;;8.32;2.42;;;12.30;99.90;;;;;;4941561;28;20038;-64
2022/11/08 00:16:46;;;;;;;12.27;2.97;;;12.40;99.90;;;;;;4952096;28;20378;-65
2022/11/08 00:19:11;;;;;;;9.60;2.90;;;12.40;99.90;;;;;;4949284;28;20760;-64
2022/11/08 00:21:37;;;;;;;11.13;2.80;;;12.40;99.90;;;;;;4945978;28;20416;-65
2022/11/08 00:24:03;;;;;;;9.50;3.08;;;12.40;99.90;;;;;;4944730;28;20106;-64
2022/11/08 00:26:28;;;;;;;10.40;2.60;;;12.50;99.90;;;;;;4943638;28;20144;-64
2022/11/08 00:28:54;;;;;;;9.93;2.80;;;12.50;99.90;;;;;;4942760;28;20075;-65
2022/11/08 00:31:19;;;;;;;10.57;3.00;;;12.50;99.90;;;;;;4948951;28;20116;-64
2022/11/08 00:33:45;;;;;;;10.02;2.38;;;12.50;99.90;;;;;;4945590;28;20327;-64
2022/11/08 00:36:10;;;;;;;9.27;2.85;;;12.60;99.90;;;;;;4939847;28;20091;-64
2022/11/08 00:38:41;;;;;;;6.57;2.58;;;12.70;99.90;;;;;;4942334;28;20074;-65
2022/11/08 00:41:06;;;;;;;6.53;2.40;;;12.70;99.90;;;;;;4934534;28;20062;-64
2022/11/08 00:43:32;;;;;;;11.05;2.88;;;12.60;99.90;;;;;;4942399;28;20126;-65
2022/11/08 00:45:57;;;;;;;9.50;2.75;;;12.60;99.90;;;;;;4942108;28;20040;-64
2022/11/08 00:48:23;;;;;;;8.90;2.70;;;12.60;99.90;;;;;;4939484;28;20058;-64
2022/11/08 00:50:48;;;;;;;8.32;2.20;;;12.60;99.90;;;;;;4935733;28;20035;-64
2022/11/08 00:53:14;;;;;;;11.93;2.55;;;12.60;99.90;;;;;;4944118;28;20035;-65
2022/11/08 00:55:39;;;;;;;12.52;2.92;;;12.70;99.90;;;;;;4947164;28;20110;-65
2022/11/08 00:58:05;;;;;;;8.98;2.30;;;12.80;99.90;;;;;;4943722;28;20121;-64
2022/11/08 01:00:31;;;;;;;9.35;2.83;;;12.80;99.90;;;;;;4942380;28;20532;-64
2022/11/08 01:05:40;;;;;;;8.68;2.60;;;12.90;99.90;;;;;;4933827;28;20774;-65
2022/11/08 01:08:06;;;;;;;8.48;2.42;;;12.80;99.90;;;;;;4939494;28;20062;-65
2022/11/08 01:10:32;;;;;;;7.53;2.40;;;12.80;99.90;;;;;;4949367;28;20188;-64
2022/11/08 01:12:58;;;;;;;8.73;2.28;;;12.70;99.90;;;;;;4944311;28;20458;-64
2022/11/08 01:15:24;;;;;;;4.97;1.92;;;12.70;99.90;;;;;;4940083;28;20061;-65
2022/11/08 01:17:50;;;;;;;7.90;2.63;;;12.70;99.90;;;;;;4939107;28;20047;-64
2022/11/08 01:20:15;;;;;;;7.18;2.35;;;12.60;99.90;;;;;;4944969;28;20449;-65
2022/11/08 01:22:41;;;;;;;12.00;2.63;;;12.60;99.90;;;;;;4943248;28;20055;-64
2022/11/08 01:25:07;;;;;;;10.73;2.50;;;12.70;99.90;;;;;;4937500;28;20031;-65
2022/11/08 01:27:33;;;;;;;8.20;2.42;;;12.60;99.90;;;;;;4939772;28;20043;-65
2022/11/08 01:29:58;;;;;;;10.57;2.63;;;12.60;99.90;;;;;;4940799;28;20035;-65
2022/11/08 01:32:24;;;;;;;11.63;2.47;;;12.60;99.90;;;;;;4940957;28;20054;-65
2022/11/08 01:34:49;;;;;;;8.07;2.38;;;12.50;99.90;;;;;;4946888;28;20042;-65
2022/11/08 01:37:15;;;;;;;6.03;2.30;;;12.50;99.90;;;;;;4941588;28;20028;-65
2022/11/08 01:39:40;;;;;;;6.95;1.92;;;12.50;99.90;;;;;;4959144;28;20043;-65
2022/11/08 01:42:06;;;;;;;7.55;1.90;;;12.40;99.90;;;;;;4947179;28;20142;-65
2022/11/08 01:44:31;;;;;;;9.05;2.58;;;12.30;99.90;;;;;;4956359;28;20094;-64
2022/11/08 01:46:57;;;;;;;8.70;2.20;;;12.30;99.90;;;;;;4946569;28;20042;-65
2022/11/08 01:49:43;;;;;;;7.85;2.10;;;12.30;99.90;;;;;;4942662;28;20073;-65
2022/11/08 01:52:34;;;;;;;7.45;2.53;;;12.30;99.90;;;;;;4938778;28;20035;-64
2022/11/08 01:55:09;;;;;;;6.13;1.92;;;12.30;99.90;;;;;;4930082;28;20298;-64
2022/11/08 01:57:37;;;;;;;7.00;2.25;;;12.20;99.90;;;;;;4952782;28;20450;-64
2022/11/08 02:00:09;;;;;;;9.13;2.05;;;12.20;99.90;;;;;;4948012;28;20129;-65
2022/11/08 02:02:36;;;;;;;4.68;1.83;;;12.30;99.90;;;;;;4973874;28;20072;-64
2022/11/08 02:05:05;;;;;;;4.45;1.88;;;12.20;99.90;;;;;;4967330;28;20030;-65
2022/11/08 02:07:32;;;;;;;7.75;2.13;;;12.30;99.90;;;;;;4970595;28;20073;-65
2022/11/08 02:09:58;;;;;;;7.90;1.95;;;12.20;99.90;;;;;;4968233;28;20035;-65
2022/11/08 02:12:25;;;;;;;11.98;2.35;;;12.20;99.90;;;;;;4967490;28;20076;-65
2022/11/08 02:14:51;;;;;;;8.52;2.13;;;12.20;99.90;;;;;;4967444;28;20053;-64
2022/11/08 02:17:16;;;;;;;10.55;2.17;;;12.20;99.90;;;;;;4963663;28;20035;-65
2022/11/08 02:19:45;;;;;;;9.07;2.28;;;12.10;99.90;;;;;;4963478;28;20042;-65
2022/11/08 02:22:25;;;;;;;6.03;1.83;;;12.10;99.90;;;;;;4961802;28;20040;-65
2022/11/08 02:24:51;;;;;;;9.82;2.35;;;12.10;99.90;;;;;;4963750;28;20054;-65
2022/11/08 02:27:16;;;;;;;6.07;1.95;;;12.10;99.90;;;;;;4966146;28;20118;-64
2022/11/08 02:29:42;;;;;;;5.90;1.63;;;12.10;99.90;;;;;;4966328;28;20047;-65
2022/11/08 02:32:10;;;;;;;10.55;2.40;;;12.10;99.90;;;;;;4963380;28;20051;-65
2022/11/08 02:34:44;;;;;;;7.75;2.00;;;12.10;99.90;;;;;;4966169;28;20078;-65
2022/11/08 02:37:11;;;;;;;10.30;2.30;;;12.00;99.90;;;;;;4965639;28;20058;-64
2022/11/08 02:39:36;;;;;;;5.63;1.98;;;12.00;99.90;;;;;;4965427;28;20407;-65
2022/11/08 02:42:03;;;;;;;6.32;1.83;;;12.00;99.90;;;;;;4965590;28;20062;-65
2022/11/08 02:44:28;;;;;;;5.53;1.80;;;12.00;99.90;;;;;;4963039;28;20457;-65
2022/11/08 02:46:54;;;;;;;9.85;2.20;;;12.00;99.90;;;;;;4965893;28;20113;-65
2022/11/08 02:49:19;;;;;;;6.53;2.25;;;12.00;99.90;;;;;;4972512;28;20043;-65
2022/11/08 02:51:45;;;;;;;9.15;2.50;;;11.90;99.90;;;;;;4959184;28;20039;-64
2022/11/08 02:54:11;;;;;;;9.50;2.10;;;12.10;99.90;;;;;;4969703;28;20158;-65
2022/11/08 02:56:36;;;;;;;10.15;2.20;;;12.00;99.90;;;;;;4966417;28;20057;-65
2022/11/08 02:59:02;;;;;;;9.82;2.08;;;12.00;99.90;;;;;;4977143;28;20041;-65
2022/11/08 03:01:27;;;;;;;10.85;2.58;;;12.10;99.90;;;;;;4962492;28;20034;-65
2022/11/08 03:03:53;;;;;;;8.13;2.03;;;12.10;99.90;;;;;;4964762;28;20054;-65
2022/11/08 03:06:18;;;;;;;6.93;2.10;;;12.00;99.90;;;;;;4965922;28;20073;-64
2022/11/08 03:08:44;;;;;;;9.35;2.05;;;12.00;99.90;;;;;;4962209;28;20031;-65
2022/11/08 03:11:10;;;;;;;6.65;1.83;;;12.00;99.90;;;;;;4965261;28;20073;-64
2022/11/08 03:13:35;;;;;;;6.18;2.08;;;12.10;99.90;;;;;;4968824;28;20122;-65
2022/11/08 03:16:03;;;;;;;8.52;1.90;;;12.10;99.90;;;;;;4963041;28;20459;-64
2022/11/08 03:18:28;;;;;;;8.30;2.05;;;12.00;99.90;;;;;;4968267;28;20098;-65
2022/11/08 03:20:54;;;;;;;8.60;2.30;;;12.10;99.90;;;;;;4970469;28;20039;-65
2022/11/08 03:23:19;;;;;;;6.82;1.90;;;12.10;99.90;;;;;;4963823;28;20041;-65
2022/11/08 03:25:45;;;;;;;8.50;2.47;;;12.00;99.90;;;;;;4967294;28;20045;-65
2022/11/08 03:28:10;;;;;;;6.28;2.35;;;12.10;99.90;;;;;;4974107;28;20039;-64
2022/11/08 03:30:36;;;;;;;5.03;1.80;;;12.00;99.90;;;;;;4961174;28;20113;-65
2022/11/08 03:33:02;;;;;;;8.15;2.25;;;11.90;99.90;;;;;;4967104;28;20030;-64
2022/11/08 03:35:28;;;;;;;7.18;2.20;;;11.90;99.90;;;;;;4978752;28;20031;-65
2022/11/08 03:37:55;;;;;;;7.18;2.40;;;12.00;99.90;;;;;;4968372;28;20409;-64
2022/11/08 03:40:22;;;;;;;7.13;2.30;;;12.00;99.90;;;;;;4964537;28;20437;-65
2022/11/08 03:42:48;;;;;;;4.95;2.35;;;12.00;99.90;;;;;;4957444;28;20019;-64
2022/11/08 03:45:14;;;;;;;10.80;2.50;;;12.00;99.90;;;;;;4957569;28;20027;-65
2022/11/08 03:47:42;;;;;;;10.10;2.30;;;12.00;99.90;;;;;;4953477;28;20027;-64
2022/11/08 03:50:08;;;;;;;7.47;2.80;;;12.00;99.90;;;;;;4963204;28;20078;-65
2022/11/08 03:52:42;;;;;;;7.80;2.45;;;12.00;99.90;;;;;;4942359;28;20031;-65
2022/11/08 03:55:09;;;;;;;8.50;2.13;;;11.90;99.90;;;;;;4935457;28;20028;-64
2022/11/08 03:57:36;;;;;;;7.63;2.50;;;11.90;99.90;;;;;;4940255;28;20700;-65
2022/11/08 04:00:02;;;;;;;12.10;2.80;;;11.90;99.90;;;;;;4940771;28;20651;-64
2022/11/08 04:02:28;;;;;;;9.32;2.60;;;11.90;99.90;;;;;;4942549;28;20047;-65
2022/11/08 04:04:53;;;;;;;7.82;2.58;;;11.90;99.90;;;;;;4955716;28;20464;-65
2022/11/08 04:07:19;;;;;;;9.20;2.60;;;11.90;99.90;;;;;;4948915;28;20043;-65
2022/11/08 04:09:44;;;;;;;12.55;3.20;;;11.90;99.90;;;;;;4945021;28;20035;-65
2022/11/08 04:23:07;;;;;;;6.03;2.80;;;11.80;99.90;;;;;;4936088;28;20077;-65
2022/11/08 04:25:32;;;;;;;7.68;2.90;;;11.80;99.90;;;;;;4935855;28;20074;-65
2022/11/08 04:27:58;;;;;;;8.43;2.97;;;11.80;99.90;;;;;;4943852;28;20027;-65
2022/11/08 04:30:23;;;;;;;11.05;3.50;;;11.90;99.90;;;;;;4943230;28;20031;-65
2022/11/08 04:32:49;;;;;;;8.70;3.22;;;11.90;99.90;;;;;;4940966;28;20102;-65
2022/11/08 04:35:14;;;;;;;8.98;3.08;;;11.80;99.90;;;;;;4934775;28;20036;-65
2022/11/08 04:37:40;;;;;;;9.57;3.10;;;11.80;99.90;;;;;;4946910;28;20039;-64
2022/11/08 04:40:06;;;;;;;11.30;3.08;;;11.80;99.90;;;;;;4938971;28;20066;-65
2022/11/08 04:42:32;;;;;;;5.85;2.40;;;11.80;99.90;;;;;;4946734;28;20039;-65
2022/11/08 04:44:57;;;;;;;13.00;3.08;;;11.80;99.90;;;;;;4935303;28;20533;-65
2022/11/08 04:47:23;;;;;;;8.65;2.70;;;11.80;99.90;;;;;;4941011;28;20536;-65
2022/11/08 04:49:48;;;;;;;9.05;2.85;;;11.80;99.90;;;;;;4943360;28;20145;-65
2022/11/08 04:52:15;;;;;;;7.57;3.00;;;11.80;99.90;;;;;;4941454;28;20130;-65
2022/11/08 04:54:43;;;;;;;6.22;2.58;;;11.70;99.90;;;;;;4942709;28;20737;-65
2022/11/08 04:57:09;;;;;;;6.32;2.60;;;11.80;99.90;;;;;;4935914;28;20035;-65
2022/11/08 04:59:35;;;;;;;7.38;2.47;;;11.80;99.90;;;;;;4936701;28;20039;-65
2022/11/08 05:02:01;;;;;;;6.85;2.58;;;11.80;99.90;;;;;;4946259;28;20487;-65
2022/11/08 05:04:26;;;;;;;7.00;2.45;;;11.80;99.90;;;;;;4948830;28;20050;-65
2022/11/08 05:06:52;;;;;;;7.50;2.08;;;11.70;99.90;;;;;;4946303;28;20034;-65
2022/11/08 05:09:17;;;;;;;5.50;2.40;;;11.70;99.90;;;;;;4936856;28;20039;-65
2022/11/08 05:11:43;;;;;;;9.77;2.63;;;11.80;99.90;;;;;;4938496;28;20109;-65
2022/11/08 05:14:08;;;;;;;5.45;2.20;;;11.80;99.90;;;;;;4938227;28;20098;-65
2022/11/08 05:16:34;;;;;;;6.60;2.72;;;11.70;99.90;;;;;;4938596;28;20069;-65
2022/11/08 05:19:00;;;;;;;9.38;2.70;;;11.80;99.90;;;;;;4940160;28;20047;-65
2022/11/08 05:24:13;;;;;;;7.57;2.83;;;11.80;99.90;;;;;;4937302;28;20240;-65
2022/11/08 05:26:43;;;;;;;7.68;2.60;;;11.70;99.90;;;;;;4944063;28;20035;-65
2022/11/08 05:29:10;;;;;;;7.18;2.67;;;11.70;99.90;;;;;;4940849;28;20039;-65
2022/11/08 05:31:36;;;;;;;9.35;2.85;;;11.80;99.90;;;;;;4937563;28;20198;-65
2022/11/08 05:34:03;;;;;;;6.05;2.67;;;11.80;99.90;;;;;;4943206;28;20049;-65
2022/11/08 05:36:29;;;;;;;7.95;2.45;;;11.70;99.90;;;;;;4942712;28;20399;-65
2022/11/08 05:38:54;;;;;;;7.75;2.70;;;11.70;99.90;;;;;;4939269;28;20631;-65
2022/11/08 05:41:22;;;;;;;5.53;2.55;;;11.80;99.90;;;;;;4942221;28;20031;-65
2022/11/08 05:43:50;;;;;;;6.93;2.83;;;11.70;99.90;;;;;;4941129;28;20407;-65
2022/11/08 05:46:17;;;;;;;4.93;2.55;;;11.70;99.90;;;;;;4936555;28;20131;-65
2022/11/08 05:48:43;;;;;;;6.57;2.92;;;11.70;99.90;;;;;;4944889;28;20043;-65
2022/11/08 05:51:10;;;;;;;7.78;3.42;;;10.90;99.90;;;;;;4944952;28;20845;-66
2022/11/08 05:53:36;;;;;;;10.15;2.88;;;11.70;99.90;;;;;;4940034;28;20036;-65
2022/11/08 05:56:03;;;;;;;7.05;3.03;;;11.70;99.90;;;;;;4942930;28;20498;-65
2022/11/08 05:58:30;;;;;;;8.25;3.08;;;11.80;99.90;;;;;;4961449;28;20043;-65
2022/11/08 06:01:16;;;;;;;7.68;3.15;;;11.80;99.90;;;;;;4939467;28;20131;-65
2022/11/08 06:03:42;;;;;;;7.68;3.17;;;11.80;99.90;;;;;;4941455;28;20408;-65
2022/11/08 06:06:10;;;;;;;10.80;3.20;;;11.80;99.90;;;;;;4941140;28;20038;-66
2022/11/08 06:08:36;;;;;;;4.80;2.90;;;11.80;99.90;;;;;;4945089;28;20032;-66
2022/11/08 06:11:08;;;;;;;7.68;2.90;;;11.80;99.90;;;;;;4939572;28;20027;-65
2022/11/08 06:13:34;;;;;;;6.57;2.90;;;11.80;99.90;;;;;;4939086;28;20133;-66
2022/11/08 06:16:02;;;;;;;5.93;3.15;;;11.70;99.90;;;;;;4945937;28;20032;-65
2022/11/08 06:18:28;;;;;;;6.53;3.00;;;11.70;99.90;;;;;;4948678;28;20031;-65
2022/11/08 06:20:54;;;;;;;7.55;3.05;;;11.70;99.90;;;;;;4940652;28;20094;-65
2022/11/08 06:23:20;;;;;;;8.13;3.08;;;11.60;99.90;;;;;;4955323;28;20063;-65
2022/11/08 06:25:46;;;;;;;5.47;2.70;;;11.60;99.90;;;;;;4962285;28;20051;-65
2022/11/08 06:28:13;;;;;;;4.72;3.13;;;11.70;99.90;;;;;;4959324;28;20067;-65
2022/11/08 06:30:39;;;;;;;6.60;2.88;;;11.60;99.90;;;;;;4942221;28;20047;-65
2022/11/08 06:33:04;;;;;;;7.38;2.75;;;11.70;99.90;;;;;;4940405;28;20043;-65
2022/11/08 06:35:30;;;;;;;7.47;2.95;;;11.90;99.90;;;;;;4958173;28;20038;-65
2022/11/08 06:37:55;;;;;;;5.10;2.92;;;11.60;99.90;;;;;;4944730;28;20050;-66
2022/11/08 06:40:21;;;;;;;6.22;2.70;;;11.60;99.90;;;;;;4957660;28;20106;-65
2022/11/08 06:42:46;;;;;;;7.65;3.00;;;11.60;99.90;;;;;;4960892;28;20082;-65
2022/11/08 06:45:12;;;;;;;6.03;3.08;;;11.60;99.90;;;;;;4943005;28;20035;-65
2022/11/08 06:47:38;;;;;;;5.80;2.75;;;11.80;99.90;;;;;;4944181;28;20039;-65
2022/11/08 06:50:04;;;;;;;5.80;2.60;;;11.60;99.90;;;;;;4944576;28;20063;-65
2022/11/08 06:52:29;;;;;;;5.18;2.70;;;11.60;99.90;;;;;;4943922;28;20110;-65
2022/11/08 06:54:55;;;;;;;9.77;3.20;;;11.60;99.90;;;;;;4960723;28;20078;-66
2022/11/08 06:57:20;;;;;;;5.10;2.85;;;11.60;99.90;;;;;;4943837;28;20110;-65
2022/11/08 06:59:46;;;;;;;7.95;2.70;;;11.70;99.90;;;;;;4942182;28;20198;-65
2022/11/08 07:02:11;;;;;;;4.53;2.70;;;11.60;99.90;;;;;;4940957;28;20048;-65
2022/11/08 07:04:37;;;;;;;11.50;3.15;;;11.70;99.90;;;;;;4945705;28;20464;-65
2022/11/08 07:07:03;;;;;;;4.93;2.67;;;11.70;99.90;;;;;;4943485;28;20042;-66
2022/11/08 07:09:28;;;;;;;5.68;2.65;;;11.70;99.90;;;;;;4941973;28;20041;-65
2022/11/08 07:11:55;;;;;;;5.43;2.42;;;11.80;99.90;;;;;;4942272;28;20750;-66
2022/11/08 07:14:20;;;;;;;7.72;2.70;;;11.70;99.90;;;;;;4946139;28;20142;-65
2022/11/08 07:16:46;;;;;;;4.95;2.60;;;11.70;99.90;;;;;;4943942;28;20031;-65
2022/11/08 07:19:11;;;;;;;5.88;2.33;;;11.80;99.90;;;;;;4942488;28;20051;-65
2022/11/08 07:21:37;;;;;;;8.73;2.67;;;11.90;99.90;;;;;;4945008;28;20250;-58
2022/11/08 07:24:03;;;;;;;82.63;53.25;;;11.90;99.90;;;;;;4943442;28;20039;-66
2022/11/08 07:26:28;;;;;;;9.60;2.65;;;12.00;99.90;;;;;;4939398;28;20031;-66
2022/11/08 07:28:54;;;;;;;9.77;2.72;;;12.00;99.90;;;;;;4940799;28;20328;-66
2022/11/08 07:31:20;;;;;;;5.47;2.42;;;12.00;99.90;;;;;;4953812;28;20558;-66
2022/11/08 07:33:46;;;;;;;10.75;3.00;;;12.00;99.90;;;;;;4942527;28;20039;-66
2022/11/08 07:36:11;;;;;;;8.02;2.50;;;12.00;99.90;;;;;;4956512;28;20424;-65
2022/11/08 07:38:37;;;;;;;8.10;2.40;;;12.10;99.90;;;;;;4942897;28;20050;-65
2022/11/08 07:41:02;;;;;;;8.63;2.35;;;12.10;99.90;;;;;;4942209;28;20122;-65
2022/11/08 07:43:28;;;;;;;5.88;2.38;;;12.10;99.90;;;;;;4946182;28;20035;-65
2022/11/08 07:45:59;;;;;;;8.30;2.38;;;12.10;99.90;;;;;;4940953;28;20035;-65
2022/11/08 07:48:26;;;;;;;8.25;2.25;;;12.20;99.90;;;;;;4942082;28;20097;-66
2022/11/08 07:50:52;;;;;;;6.80;2.30;;;12.20;99.90;;;;;;4942483;28;20031;-65
2022/11/08 07:53:17;;;;;;;8.02;2.47;;;12.20;99.90;;;;;;4944871;28;20045;-65
2022/11/08 07:55:45;;;;;;;7.80;2.60;;;12.20;99.90;;;;;;4947837;28;20626;-65
2022/11/08 07:58:11;;;;;;;11.80;2.60;;;12.30;99.90;;;;;;4939659;28;20043;-65
2022/11/08 08:00:38;;;;;;;6.00;2.30;;;12.40;99.90;;;;;;4940109;28;20043;-65
2022/11/08 08:03:05;;;;;;;4.75;1.98;;;12.50;99.90;;;;;;4938966;28;20035;-64
2022/11/08 08:05:37;;;;;;;4.50;1.83;;;12.50;99.90;;;;;;4941656;28;20519;-64
2022/11/08 08:08:03;;;;;;;6.60;2.30;;;12.50;99.90;;;;;;4940231;28;20638;-64
2022/11/08 08:10:29;;;;;;;3.60;2.00;;;12.50;99.90;;;;;;4941399;28;20044;-64
2022/11/08 08:12:56;;;;;;;5.20;1.92;;;12.50;99.90;;;;;;4944847;28;20700;-64
2022/11/08 08:15:22;;;;;;;11.88;6.80;;;12.50;99.90;;;;;;4938413;28;20118;-63
2022/11/08 08:17:47;;;;;;;9.23;3.15;;;12.60;99.90;;;;;;4942292;28;20444;-64
2022/11/08 08:20:13;;;;;;;6.80;2.53;;;12.60;99.90;;;;;;4940815;28;20055;-64
2022/11/08 08:22:43;;;;;;;7.75;1.80;;;12.60;99.90;;;;;;4943086;28;20606;-64
2022/11/08 08:25:09;;;;;;;8.93;2.08;;;12.60;99.90;;;;;;4941499;28;20690;-64
2022/11/08 08:27:35;;;;;;;6.25;1.95;;;12.60;99.90;;;;;;4936624;28;20047;-63
2022/11/08 08:30:00;;;;;;;3.97;1.90;;;12.60;99.90;;;;;;4941326;28;20050;-63
2022/11/08 08:32:26;;;;;;;5.60;2.00;;;12.70;99.90;;;;;;4960281;28;20053;-64
2022/11/08 08:34:51;;;;;;;3.97;1.80;;;12.50;99.90;;;;;;4945945;28;20043;-64
2022/11/08 08:37:17;;;;;;;7.45;2.28;;;12.70;99.90;;;;;;4941730;28;20090;-63
2022/11/08 08:39:42;;;;;;;5.28;1.90;;;12.80;99.90;;;;;;4941389;28;20250;-63
2022/11/08 08:42:08;;;;;;;4.78;2.00;;;12.80;99.90;;;;;;4943886;28;20202;-63
2022/11/08 08:44:33;;;;;;;4.32;1.60;;;12.90;99.90;;;;;;4945202;28;20049;-63
2022/11/08 08:46:59;;;;;;;5.60;2.20;;;12.90;99.90;;;;;;4937884;28;20031;-63
2022/11/08 08:49:24;;;;;;;3.78;1.65;;;13.00;99.90;;;;;;4943030;28;20027;-63
2022/11/08 08:51:50;;;;;;;6.43;2.05;;;13.00;99.90;;;;;;4946443;28;20032;-64
2022/11/08 08:54:15;;;;;;;6.72;1.80;;;13.00;99.90;;;;;;4939103;28;20058;-63
2022/11/08 08:56:41;;;;;;;4.72;1.90;;;13.00;99.90;;;;;;4940532;28;20032;-63
2022/11/08 08:59:07;;;;;;;6.82;1.95;;;12.90;99.90;;;;;;4940689;28;20058;-63
2022/11/08 09:01:32;;;;;;;8.88;2.20;;;13.00;99.90;;;;;;4938043;28;20217;-63
2022/11/08 09:03:58;;;;;;;14.38;7.20;;;13.00;99.90;;;;;;4943995;28;20112;-63
2022/11/08 09:06:23;;;;;;;4.88;1.83;;;13.10;99.90;;;;;;4940197;28;20476;-63
2022/11/08 09:08:49;;;;;;;3.38;1.95;;;13.10;99.90;;;;;;4942530;28;20040;-62
2022/11/08 09:11:14;;;;;;;7.80;2.08;;;13.10;99.90;;;;;;4941037;28;20440;-63
2022/11/08 09:13:40;;;;;;;4.57;1.88;;;13.20;99.90;;;;;;4941659;28;20451;-63
2022/11/08 09:16:06;;;;;;;9.25;2.20;;;13.20;99.90;;;;;;4938022;28;20648;-63
2022/11/08 09:18:32;;;;;;;3.42;1.83;;;13.30;99.90;;;;;;4936952;28;20407;-63
2022/11/08 09:20:59;;;;;;;3.95;1.88;;;13.30;99.90;;;;;;4941466;28;20042;-63
2022/11/08 09:23:25;;;;;;;3.60;1.90;;;13.30;99.90;;;;;;4953030;28;20034;-62
2022/11/08 09:26:00;;;;;;;6.80;1.90;;;13.30;99.90;;;;;;4966796;28;20095;-63
2022/11/08 09:28:26;;;;;;;7.78;2.05;;;13.30;99.90;;;;;;4958156;28;20046;-62
2022/11/08 09:30:52;;;;;;;5.88;1.90;;;13.40;99.90;;;;;;4963532;28;20174;-63
2022/11/08 09:33:17;;;;;;;7.47;1.80;;;13.40;99.90;;;;;;4945016;28;20050;-62
2022/11/08 09:35:45;;;;;;;3.92;1.95;;;13.40;99.90;;;;;;4935912;28;20032;-63
2022/11/08 09:38:10;;;;;;;9.50;2.15;;;13.50;99.90;;;;;;4942437;28;20178;-62
2022/11/08 09:40:48;;;;;;;6.45;1.95;;;13.40;99.90;;;;;;4938508;28;20716;-62
2022/11/08 09:43:51;;;;;;;3.88;2.00;;;13.50;99.90;;;;;;4931230;28;20031;-62
2022/11/08 09:46:54;;;;;;;5.80;1.80;;;13.60;99.90;;;;;;4922122;29;20323;-62
2022/11/08 09:49:30;;;;;;;5.00;1.95;;;13.60;99.90;;;;;;4918556;29;20362;-63
2022/11/08 09:51:58;;;;;;;2.50;1.70;;;13.60;99.90;;;;;;4927291;28;20063;-63
2022/11/08 09:54:30;;;;;;;7.15;2.63;;;13.50;99.90;;;;;;4939536;28;20066;-63
2022/11/08 09:56:56;;;;;;;3.63;1.90;;;13.70;99.90;;;;;;4942126;28;20035;-63
2022/11/08 09:59:36;;;;;;;4.65;1.92;;;13.60;99.90;;;;;;4949745;28;20539;-63
2022/11/08 10:02:11;;;;;;;5.57;1.90;;;13.70;99.90;;;;;;4942038;28;20040;-63
2022/11/08 10:04:37;;;;;;;4.13;2.10;;;13.70;99.90;;;;;;4945082;28;20213;-63
2022/11/08 10:07:52;;;;;;;4.20;1.88;;;13.80;99.90;;;;;;4948341;28;20038;-63
2022/11/08 10:11:00;;;;;;;5.72;2.20;;;13.70;99.90;;;;;;4939509;28;20088;-63
2022/11/08 10:14:10;;;;;;;5.00;1.92;;;13.70;99.90;;;;;;4944360;28;20046;-63
2022/11/08 10:16:54;;;;;;;7.25;1.95;;;13.70;99.90;;;;;;4931795;28;20660;-62
2022/11/08 10:19:54;;;;;;;6.28;2.00;;;13.70;99.90;;;;;;4942218;28;20035;-63
2022/11/08 10:22:45;;;;;;;5.18;1.80;;;13.70;99.90;;;;;;4937391;28;20042;-63
2022/11/08 10:25:19;;;;;;;7.22;2.50;;;13.70;99.90;;;;;;4946089;28;20124;-63
2022/11/08 10:27:44;;;;;;;7.13;2.10;;;13.80;99.90;;;;;;4943194;28;20055;-63
2022/11/08 10:30:19;;;;;;;5.78;1.90;;;13.80;99.90;;;;;;4947043;28;20051;-63
2022/11/08 10:32:52;;;;;;;4.07;1.80;;;13.90;99.90;;;;;;4946167;28;20141;-63
2022/11/08 10:35:36;;;;;;;5.30;1.95;;;13.90;99.90;;;;;;4940624;28;20466;-62
2022/11/08 10:38:12;;;;;;;5.30;1.80;;;13.90;99.90;;;;;;4944375;28;20058;-62
2022/11/08 10:40:54;;;;;;;6.97;1.92;;;14.00;99.90;;;;;;4934956;28;20047;-62
2022/11/08 10:43:32;;;;;;;16.58;7.95;;;14.00;99.90;;;;;;4939206;28;20535;-63
2022/11/08 10:45:58;;;;;;;3.25;1.80;;;14.10;99.90;;;;;;4946318;28;21279;-63
2022/11/08 10:48:23;;;;;;;3.58;1.70;;;14.10;99.90;;;;;;4951230;28;20150;-63
2022/11/08 10:50:50;;;;;;;4.05;1.73;;;14.10;99.90;;;;;;4941195;28;20039;-63
2022/11/08 10:53:26;;;;;;;3.58;1.70;;;14.10;99.90;;;;;;4949465;28;20470;-63
2022/11/08 10:56:03;;;;;;;5.93;2.20;;;14.20;99.90;;;;;;4946662;28;20031;-63
2022/11/08 10:58:40;;;;;;;5.70;2.10;;;14.30;99.90;;;;;;4942587;28;20119;-62
2022/11/08 11:01:17;;;;;;;4.80;1.67;;;14.30;99.90;;;;;;4944685;28;20031;-63
2022/11/08 11:03:44;;;;;;;4.57;1.52;;;14.30;99.90;;;;;;4947004;28;20502;-64
2022/11/08 11:06:31;;;;;;;4.20;1.73;;;14.30;99.90;;;;;;4943294;28;20287;-62
2022/11/08 11:08:59;;;;;;;3.97;2.20;;;14.30;99.90;;;;;;4946080;28;20039;-63
2022/11/08 11:11:26;;;;;;;4.07;1.85;;;14.40;99.90;;;;;;4941325;28;20513;-63
2022/11/08 11:14:10;;;;;;;8.73;2.55;;;14.40;99.90;;;;;;4941079;28;20059;-63
2022/11/08 11:16:36;;;;;;;;;;;14.50;99.90;;;;;;4939764;28;20038;-63
2022/11/08 11:19:04;;;;;;;5.13;2.50;;;14.50;99.90;;;;;;4944127;28;19933;-63
2022/11/08 11:21:35;;;;;;;5.32;2.20;;;14.50;99.90;;;;;;4940773;28;20035;-63
2022/11/08 11:24:11;;;;;;;3.60;1.90;;;14.50;99.90;;;;;;4948272;28;20362;-63
2022/11/08 11:26:47;;;;;;;4.47;1.77;;;14.70;99.90;;;;;;4943334;28;20039;-63
2022/11/08 11:29:31;;;;;;;4.15;1.70;;;14.70;99.90;;;;;;4941177;28;20035;-63
2022/11/08 11:31:57;;;;;;;4.38;1.80;;;14.80;99.90;;;;;;4944842;28;20051;-63
2022/11/08 11:34:29;;;;;;;6.10;1.80;;;14.80;99.90;;;;;;4943290;28;20055;-63
2022/11/08 11:37:15;;;;;;;3.08;1.90;;;14.80;99.90;;;;;;4948251;28;20094;-64
2022/11/08 11:39:59;;;;;;;4.28;1.83;;;14.90;99.90;;;;;;4946436;28;20526;-63
2022/11/08 11:42:41;;;;;;;4.53;1.90;;;15.00;99.90;;;;;;4946943;28;20030;-64
2022/11/08 11:45:18;;;;;;;5.15;2.00;;;15.10;99.90;;;;;;4937533;28;20118;-64
2022/11/08 11:47:49;;;;;;;6.75;2.30;;;15.10;99.90;;;;;;4936850;28;20035;-64
2022/11/08 11:50:38;;;;;;;4.68;2.00;;;15.20;99.90;;;;;;4940252;28;20326;-64
2022/11/08 11:53:10;;;;;;;4.07;1.90;;;15.30;99.90;;;;;;4947315;28;20126;-64
2022/11/08 11:55:58;;;;;;;5.10;1.98;;;15.20;99.90;;;;;;4948387;28;20122;-64
2022/11/08 11:58:48;;;;;;;5.72;1.75;;;15.20;99.90;;;;;;4928028;28;20692;-64
2022/11/08 12:01:48;;;;;;;5.45;1.98;;;15.20;99.90;;;;;;4939668;28;20031;-64
2022/11/08 12:04:35;;;;;;;3.90;2.03;;;15.30;99.90;;;;;;4930167;28;20038;-64
2022/11/08 12:07:17;;;;;;;4.03;2.05;;;15.30;99.90;;;;;;4943355;28;20479;-64
2022/11/08 12:10:15;;;;;;;4.90;1.70;;;15.30;99.90;;;;;;4935099;28;20047;-64
2022/11/08 12:12:50;;;;;;;5.72;2.03;;;15.40;99.90;;;;;;4932150;28;20031;-64
2022/11/08 12:15:34;;;;;;;5.10;1.80;;;15.50;99.90;;;;;;4927532;28;20511;-64
2022/11/08 12:18:14;;;;;;;3.70;1.63;;;15.50;99.90;;;;;;4936860;28;20495;-64
2022/11/08 12:20:51;;;;;;;5.00;1.90;;;15.50;99.90;;;;;;4921310;29;20399;-64
2022/11/08 12:24:01;;;;;;;5.40;1.80;;;15.70;99.90;;;;;;4923537;29;20024;-64
2022/11/08 12:27:09;;;;;;;3.92;1.90;;;15.70;99.90;;;;;;4927072;28;20706;-64
2022/11/08 12:30:13;;;;;;;3.45;1.73;;;15.70;99.90;;;;;;4921893;29;20036;-63
2022/11/08 12:33:01;;;;;;;7.00;2.35;;;15.70;99.90;;;;;;4897534;29;20060;-64
2022/11/08 12:35:48;;;;;;;4.47;1.95;;;15.70;99.90;;;;;;4925290;29;20038;-64
2022/11/08 12:38:20;;;;;;;5.03;1.92;;;15.70;99.90;;;;;;4930511;28;20044;-64
2022/11/08 12:41:11;;;;;;;4.30;2.00;;;15.70;99.90;;;;;;4939916;28;20035;-63
2022/11/08 12:43:48;;;;;;;5.63;1.60;;;15.70;99.90;;;;;;4944889;28;20528;-64
2022/11/08 12:46:18;;;;;;;3.17;1.70;;;15.70;99.90;;;;;;4944564;28;20171;-62
2022/11/08 12:48:49;;;;;;;5.78;1.80;;;15.70;99.90;;;;;;4945255;28;20038;-62
2022/11/08 12:51:26;;;;;;;4.05;1.60;;;15.70;99.90;;;;;;4948359;28;20436;-62
2022/11/08 12:54:19;;;;;;;5.03;2.00;;;15.70;99.90;;;;;;4943207;28;20031;-62
2022/11/08 12:56:47;;;;;;;7.20;2.10;;;15.80;99.90;;;;;;4943876;28;20043;-62
2022/11/08 12:59:33;;;;;;;5.65;1.95;;;15.80;99.90;;;;;;4946294;28;20430;-62
2022/11/08 13:02:01;;;;;;;4.38;2.08;;;15.90;99.90;;;;;;4946472;28;20038;-62
2022/11/08 13:04:42;;;;;;;3.45;1.60;;;15.90;99.90;;;;;;4935845;28;20365;-62
2022/11/08 13:07:10;;;;;;;4.30;1.80;;;16.00;99.90;;;;;;4935988;28;20036;-63
2022/11/08 13:09:45;;;;;;;4.78;1.88;;;15.90;99.90;;;;;;4941682;28;20043;-62
2022/11/08 13:12:29;;;;;;;6.32;1.90;;;15.80;99.90;;;;;;4942573;28;20095;-62
2022/11/08 13:14:57;;;;;;;4.78;1.80;;;15.80;99.90;;;;;;4932422;28;20039;-63
2022/11/08 13:17:25;;;;;;;6.18;2.03;;;15.90;99.90;;;;;;4945869;28;20050;-63
2022/11/08 13:19:53;;;;;;;5.97;1.88;;;15.90;99.90;;;;;;4947288;28;20039;-63
2022/11/08 13:22:28;;;;;;;2.65;1.77;;;15.90;99.90;;;;;;4945090;28;20077;-62
2022/11/08 13:24:58;;;;;;;7.00;2.10;;;15.90;99.90;;;;;;4945341;28;20386;-62
2022/11/08 13:27:31;;;;;;;5.97;1.80;;;16.00;99.90;;;;;;4940206;28;20061;-62